Time;durP1;ratioP1;P1;durP2;ratioP2;P2;SDS_P1;SDS_P2;PMS_P1;PMS_P2;Temp;Humidity;BMP_temperature;BMP_pressure;BME280_temperature;BME280_humidity;BME280_pressure;Samples;Min_cycle;Max_cycle;Signal;HPM_P1;HPM_P2
2021/01/12 00:00:18;;;;;;;155.32;74.22;;;;;;;;;;5032960;28;20026;-61
2021/01/12 00:02:44;;;;;;;148.75;71.57;;;;;;;;;;5032826;28;20538;-61
2021/01/12 00:05:10;;;;;;;146.63;69.10;;;;;;;;;;5017215;28;20026;-60
2021/01/12 00:07:37;;;;;;;128.32;62.63;;;;;;;;;;5037054;28;20025;-61
2021/01/12 00:10:03;;;;;;;128.93;63.35;;;;;;;;;;5037020;28;20104;-61
2021/01/12 00:12:29;;;;;;;118.93;59.95;;;;;;;;;;5036669;28;20044;-60
2021/01/12 00:14:54;;;;;;;114.63;55.83;;;;;;;;;;5036935;28;20026;-61
2021/01/12 00:17:20;;;;;;;111.95;55.22;;;;;;;;;;5036526;28;20036;-61
2021/01/12 00:19:45;;;;;;;108.43;53.13;;;;;;;;;;5036574;28;20357;-60
2021/01/12 00:22:14;;;;;;;117.95;55.10;;;;;;;;;;5036575;28;20099;-61
2021/01/12 00:24:40;;;;;;;114.00;53.88;;;;;;;;;;5036638;28;20105;-59
2021/01/12 00:27:06;;;;;;;113.68;56.78;;;;;;;;;;5036417;28;20061;-61
2021/01/12 00:29:32;;;;;;;103.63;53.58;;;;;;;;;;5036640;28;20060;-62
2021/01/12 00:31:58;;;;;;;116.72;56.17;;;;;;;;;;5035097;28;20537;-61
2021/01/12 00:34:24;;;;;;;113.78;56.22;;;;;;;;;;5036744;28;20067;-61
2021/01/12 00:36:50;;;;;;;110.03;55.55;;;;;;;;;;5036399;28;20033;-61
2021/01/12 00:39:22;;;;;;;118.97;57.40;;;;;;;;;;5036110;28;20021;-61
2021/01/12 00:41:56;;;;;;;107.82;53.55;;;;;;;;;;5035981;28;20024;-61
2021/01/12 00:44:23;;;;;;;109.97;51.65;;;;;;;;;;5036045;28;20109;-61
2021/01/12 00:46:48;;;;;;;98.47;50.42;;;;;;;;;;5036244;28;20460;-60
2021/01/12 00:49:15;;;;;;;97.57;48.58;;;;;;;;;;5036240;28;20029;-60
2021/01/12 00:51:41;;;;;;;94.68;47.60;;;;;;;;;;5036214;28;20017;-60
2021/01/12 00:54:08;;;;;;;103.50;49.05;;;;;;;;;;5035988;28;20103;-60
2021/01/12 00:56:33;;;;;;;99.97;48.28;;;;;;;;;;5035787;28;20076;-60
2021/01/12 00:58:59;;;;;;;86.05;44.85;;;;;;;;;;5035326;28;20067;-61
2021/01/12 01:01:25;;;;;;;92.93;45.25;;;;;;;;;;5035595;28;20360;-61
2021/01/12 01:03:51;;;;;;;97.28;46.35;;;;;;;;;;5035686;28;20026;-60
2021/01/12 01:06:16;;;;;;;94.72;47.83;;;;;;;;;;5035607;28;20092;-61
2021/01/12 01:08:42;;;;;;;95.28;45.88;;;;;;;;;;5035530;28;20113;-60
2021/01/12 01:11:07;;;;;;;96.05;46.22;;;;;;;;;;5035666;28;20561;-61
2021/01/12 01:13:32;;;;;;;95.82;47.22;;;;;;;;;;5035416;28;20025;-60
2021/01/12 01:15:58;;;;;;;95.85;46.72;;;;;;;;;;5034834;28;20124;-60
2021/01/12 01:18:24;;;;;;;96.65;48.30;;;;;;;;;;5035660;28;20084;-61
2021/01/12 01:20:49;;;;;;;100.07;49.38;;;;;;;;;;5035365;28;20468;-60
2021/01/12 01:23:15;;;;;;;88.97;47.22;;;;;;;;;;5035411;28;20108;-61
2021/01/12 01:25:42;;;;;;;85.43;45.35;;;;;;;;;;5034028;28;20029;-60
2021/01/12 01:28:07;;;;;;;85.30;42.80;;;;;;;;;;5033851;28;20033;-60
2021/01/12 01:30:33;;;;;;;77.93;40.42;;;;;;;;;;5035412;28;20025;-61
2021/01/12 01:32:58;;;;;;;71.60;37.85;;;;;;;;;;5035294;28;20026;-61
2021/01/12 01:35:24;;;;;;;78.60;40.75;;;;;;;;;;5035323;28;20034;-61
2021/01/12 01:37:50;;;;;;;77.95;39.67;;;;;;;;;;5035248;28;20040;-61
2021/01/12 01:40:19;;;;;;;85.43;40.53;;;;;;;;;;5034951;28;20022;-61
2021/01/12 01:42:45;;;;;;;80.20;38.83;;;;;;;;;;5035062;28;20041;-61
2021/01/12 01:45:10;;;;;;;78.60;39.05;;;;;;;;;;5034777;28;20014;-62
2021/01/12 01:47:42;;;;;;;75.55;40.65;;;;;;;;;;5034129;28;20416;-62
2021/01/12 01:50:15;;;;;;;75.68;39.72;;;;;;;;;;5033533;28;20033;-62
2021/01/12 01:52:43;;;;;;;74.80;39.80;;;;;;;;;;5034592;28;20045;-62
2021/01/12 01:55:10;;;;;;;70.75;36.83;;;;;;;;;;5034220;28;20129;-62
2021/01/12 01:57:35;;;;;;;66.10;34.60;;;;;;;;;;5035062;28;20028;-62
2021/01/12 02:00:03;;;;;;;66.22;33.20;;;;;;;;;;5034516;28;20029;-62
2021/01/12 02:02:36;;;;;;;71.32;37.47;;;;;;;;;;5034413;28;20087;-62
2021/01/12 02:05:03;;;;;;;68.50;37.40;;;;;;;;;;5033398;28;20052;-62
2021/01/12 02:07:30;;;;;;;56.90;31.58;;;;;;;;;;5034408;28;20560;-62
2021/01/12 02:09:58;;;;;;;54.08;30.95;;;;;;;;;;5033462;28;20365;-63
2021/01/12 02:12:28;;;;;;;49.75;29.42;;;;;;;;;;5034625;28;20014;-62
2021/01/12 02:14:53;;;;;;;51.17;28.38;;;;;;;;;;5034364;28;20460;-62
2021/01/12 02:17:19;;;;;;;50.85;27.50;;;;;;;;;;5034262;28;20060;-63
2021/01/12 02:19:51;;;;;;;49.13;27.92;;;;;;;;;;5034140;28;20464;-62
2021/01/12 02:22:26;;;;;;;44.97;26.55;;;;;;;;;;5034002;28;20112;-62
2021/01/12 02:24:53;;;;;;;49.13;26.13;;;;;;;;;;5033923;28;20098;-61
2021/01/12 02:27:23;;;;;;;41.15;24.20;;;;;;;;;;5033808;28;20112;-61
2021/01/12 02:29:50;;;;;;;41.72;23.48;;;;;;;;;;5032825;28;20128;-61
2021/01/12 02:32:16;;;;;;;37.30;21.30;;;;;;;;;;5034005;28;20104;-62
2021/01/12 02:34:43;;;;;;;32.47;19.73;;;;;;;;;;5033985;28;20511;-61
2021/01/12 02:37:09;;;;;;;29.10;18.65;;;;;;;;;;5033685;28;20013;-61
2021/01/12 02:39:35;;;;;;;30.10;17.88;;;;;;;;;;5033619;28;20836;-61
2021/01/12 02:42:00;;;;;;;27.90;16.88;;;;;;;;;;5033664;28;20021;-61
2021/01/12 02:44:27;;;;;;;23.23;15.70;;;;;;;;;;5034095;28;20491;-62
2021/01/12 02:46:54;;;;;;;24.13;16.13;;;;;;;;;;5033621;28;20091;-62
2021/01/12 02:49:20;;;;;;;25.08;16.27;;;;;;;;;;5033459;28;20510;-62
2021/01/12 02:51:46;;;;;;;26.90;16.10;;;;;;;;;;5033618;28;20029;-62
2021/01/12 02:54:11;;;;;;;22.42;15.55;;;;;;;;;;5033907;28;20444;-62
2021/01/12 02:56:37;;;;;;;25.02;15.93;;;;;;;;;;5033488;28;20112;-62
2021/01/12 02:59:03;;;;;;;25.40;17.25;;;;;;;;;;5032725;28;20100;-62
2021/01/12 03:01:28;;;;;;;26.00;18.42;;;;;;;;;;5033886;28;20029;-62
2021/01/12 03:03:54;;;;;;;31.02;20.80;;;;;;;;;;5032390;28;20476;-62
2021/01/12 03:06:20;;;;;;;28.20;20.52;;;;;;;;;;5033503;28;20021;-62
2021/01/12 03:08:45;;;;;;;24.48;17.60;;;;;;;;;;5033488;28;20021;-62
2021/01/12 03:11:20;;;;;;;29.45;18.05;;;;;;;;;;5033341;28;20017;-62
2021/01/12 03:13:45;;;;;;;28.80;17.90;;;;;;;;;;5033113;28;20032;-62
2021/01/12 03:16:12;;;;;;;24.65;16.58;;;;;;;;;;5033168;28;20022;-62
2021/01/12 03:18:37;;;;;;;25.33;16.20;;;;;;;;;;5033262;28;20372;-63
2021/01/12 03:21:03;;;;;;;25.42;15.90;;;;;;;;;;5033401;28;20021;-62
2021/01/12 03:23:29;;;;;;;29.00;16.65;;;;;;;;;;5033146;28;20434;-62
2021/01/12 03:25:54;;;;;;;34.22;19.55;;;;;;;;;;5033381;28;20472;-63
2021/01/12 03:28:20;;;;;;;33.22;19.92;;;;;;;;;;5033384;28;20025;-62
2021/01/12 03:30:45;;;;;;;39.58;22.05;;;;;;;;;;5033006;28;20476;-62
2021/01/12 03:33:11;;;;;;;37.72;20.42;;;;;;;;;;5033024;28;20030;-62
2021/01/12 03:35:36;;;;;;;28.00;16.55;;;;;;;;;;5032830;28;20021;-62
2021/01/12 03:38:02;;;;;;;30.55;17.58;;;;;;;;;;5033006;28;20111;-62
2021/01/12 03:40:27;;;;;;;32.30;19.10;;;;;;;;;;5035689;28;20463;-61
2021/01/12 03:42:53;;;;;;;31.90;17.90;;;;;;;;;;5036053;28;20064;-61
2021/01/12 03:45:18;;;;;;;30.50;17.88;;;;;;;;;;5037123;28;20025;-64
2021/01/12 03:47:44;;;;;;;32.30;18.55;;;;;;;;;;5037104;28;20032;-61
2021/01/12 03:50:09;;;;;;;36.58;20.42;;;;;;;;;;5036961;28;20021;-62
2021/01/12 03:52:35;;;;;;;35.65;20.55;;;;;;;;;;5036907;28;20034;-62
2021/01/12 03:55:10;;;;;;;39.53;21.50;;;;;;;;;;5036394;28;20137;-62
2021/01/12 03:57:36;;;;;;;34.30;21.52;;;;;;;;;;5037029;28;20388;-62
2021/01/12 04:00:03;;;;;;;35.42;21.02;;;;;;;;;;5037059;28;20037;-62
2021/01/12 04:02:37;;;;;;;48.13;25.45;;;;;;;;;;5036060;28;20052;-61
2021/01/12 04:05:05;;;;;;;44.03;24.45;;;;;;;;;;5036681;28;20461;-61
2021/01/12 04:07:31;;;;;;;43.53;23.85;;;;;;;;;;5035421;28;20021;-61
2021/01/12 04:09:57;;;;;;;41.90;23.80;;;;;;;;;;5035309;28;20487;-61
2021/01/12 04:12:22;;;;;;;44.92;23.80;;;;;;;;;;5035744;28;20021;-62
2021/01/12 04:14:48;;;;;;;45.40;25.73;;;;;;;;;;5035291;28;20195;-61
2021/01/12 04:17:13;;;;;;;51.00;29.55;;;;;;;;;;5036641;28;20021;-61
2021/01/12 04:19:39;;;;;;;54.90;29.38;;;;;;;;;;5036603;28;20029;-62
2021/01/12 04:22:04;;;;;;;52.00;29.25;;;;;;;;;;5036576;28;20049;-62
2021/01/12 04:24:30;;;;;;;56.25;31.27;;;;;;;;;;5036495;28;20029;-62
2021/01/12 04:26:55;;;;;;;61.13;35.70;;;;;;;;;;5036294;28;20027;-63
2021/01/12 04:29:21;;;;;;;60.10;35.35;;;;;;;;;;5036474;28;20033;-62
2021/01/12 04:31:46;;;;;;;54.35;29.38;;;;;;;;;;5036626;28;20487;-62
2021/01/12 04:34:12;;;;;;;52.78;29.15;;;;;;;;;;5035152;28;20035;-62
2021/01/12 04:36:37;;;;;;;62.15;33.40;;;;;;;;;;5034725;28;20033;-62
2021/01/12 04:39:03;;;;;;;69.25;38.90;;;;;;;;;;5036538;28;20030;-63
2021/01/12 04:41:31;;;;;;;72.00;39.92;;;;;;;;;;5036010;28;20533;-61
2021/01/12 04:43:56;;;;;;;61.92;34.40;;;;;;;;;;5036029;28;20029;-61
2021/01/12 04:46:21;;;;;;;64.80;33.45;;;;;;;;;;5036093;28;20108;-61
2021/01/12 04:48:48;;;;;;;67.57;34.75;;;;;;;;;;5036110;28;20120;-62
2021/01/12 04:51:14;;;;;;;74.93;36.88;;;;;;;;;;5035161;28;20104;-63
2021/01/12 04:53:47;;;;;;;65.55;34.25;;;;;;;;;;5036219;28;20399;-62
2021/01/12 04:56:13;;;;;;;62.47;31.98;;;;;;;;;;5035569;28;20128;-62
2021/01/12 04:58:40;;;;;;;61.13;32.17;;;;;;;;;;5035899;28;20495;-61
2021/01/12 05:01:10;;;;;;;64.45;33.85;;;;;;;;;;5035769;28;20028;-61
2021/01/12 05:03:36;;;;;;;64.40;34.65;;;;;;;;;;5034545;28;20116;-61
2021/01/12 05:06:02;;;;;;;64.30;35.45;;;;;;;;;;5035855;28;20100;-61
2021/01/12 05:08:27;;;;;;;62.88;34.08;;;;;;;;;;5035694;28;20475;-61
2021/01/12 05:10:53;;;;;;;65.38;33.72;;;;;;;;;;5035645;28;20032;-61
2021/01/12 05:13:20;;;;;;;61.75;33.53;;;;;;;;;;5035547;28;20037;-61
2021/01/12 05:15:49;;;;;;;61.45;32.70;;;;;;;;;;5035490;28;20017;-61
2021/01/12 05:18:17;;;;;;;71.88;39.03;;;;;;;;;;5035511;28;20503;-61
2021/01/12 05:20:50;;;;;;;65.60;35.10;;;;;;;;;;5034084;28;20024;-61
2021/01/12 05:23:29;;;;;;;68.15;35.45;;;;;;;;;;5035271;28;20161;-61
2021/01/12 05:25:55;;;;;;;63.75;33.92;;;;;;;;;;5035285;28;20037;-61
2021/01/12 05:28:20;;;;;;;65.63;35.17;;;;;;;;;;5035340;28;20028;-62
2021/01/12 05:30:47;;;;;;;63.97;33.85;;;;;;;;;;5034824;28;20117;-62
2021/01/12 05:33:16;;;;;;;60.33;34.38;;;;;;;;;;5035297;28;20025;-61
2021/01/12 05:35:44;;;;;;;71.63;36.67;;;;;;;;;;5035136;28;20460;-61
2021/01/12 05:38:22;;;;;;;80.72;40.83;;;;;;;;;;5035288;28;20013;-61
2021/01/12 05:40:53;;;;;;;101.18;49.95;;;;;;;;;;5035169;28;20021;-61
2021/01/12 05:43:29;;;;;;;81.55;39.55;;;;;;;;;;5033339;28;20440;-61
2021/01/12 05:45:55;;;;;;;61.65;32.55;;;;;;;;;;5035005;28;20033;-61
2021/01/12 05:48:25;;;;;;;60.13;32.50;;;;;;;;;;5033963;28;20075;-61
2021/01/12 05:50:54;;;;;;;62.70;32.92;;;;;;;;;;5034913;28;20447;-61
2021/01/12 05:53:22;;;;;;;85.15;43.13;;;;;;;;;;5034883;28;20048;-62
2021/01/12 05:55:52;;;;;;;102.47;49.20;;;;;;;;;;5034541;28;20077;-62
2021/01/12 05:58:28;;;;;;;96.53;45.25;;;;;;;;;;5015000;28;20034;-62
2021/01/12 06:00:54;;;;;;;84.93;43.83;;;;;;;;;;5015502;28;20030;-62
2021/01/12 06:03:22;;;;;;;101.97;46.50;;;;;;;;;;5014653;28;20026;-61
2021/01/12 06:05:49;;;;;;;97.57;48.28;;;;;;;;;;5014999;28;20026;-62
2021/01/12 06:08:15;;;;;;;98.53;47.83;;;;;;;;;;5014901;28;20045;-61
2021/01/12 06:10:45;;;;;;;103.53;47.40;;;;;;;;;;5014797;28;20108;-62
2021/01/12 06:13:14;;;;;;;107.93;51.28;;;;;;;;;;5014577;28;20124;-62
2021/01/12 06:15:40;;;;;;;80.03;41.33;;;;;;;;;;5014555;28;20476;-62
2021/01/12 06:18:10;;;;;;;69.43;37.50;;;;;;;;;;5014833;28;20021;-61
2021/01/12 06:20:44;;;;;;;67.05;33.92;;;;;;;;;;5014626;28;20108;-61
2021/01/12 06:23:13;;;;;;;81.90;40.10;;;;;;;;;;5046236;28;20026;-62
2021/01/12 06:25:38;;;;;;;135.75;58.08;;;;;;;;;;5012827;28;20045;-61
2021/01/12 06:28:04;;;;;;;115.75;54.53;;;;;;;;;;5014856;28;20080;-61
2021/01/12 06:30:30;;;;;;;62.80;34.25;;;;;;;;;;5014180;28;20079;-61
2021/01/12 06:32:55;;;;;;;61.20;34.15;;;;;;;;;;5014285;28;20053;-61
2021/01/12 06:35:21;;;;;;;60.83;33.63;;;;;;;;;;5014280;28;20049;-62
2021/01/12 06:37:49;;;;;;;54.83;30.58;;;;;;;;;;5023781;28;20033;-61
2021/01/12 06:40:17;;;;;;;55.75;30.80;;;;;;;;;;5033722;28;20017;-68
2021/01/12 06:42:43;;;;;;;51.13;29.70;;;;;;;;;;5033591;28;20021;-68
2021/01/12 06:45:11;;;;;;;56.78;29.15;;;;;;;;;;5033006;28;20377;-67
2021/01/12 06:47:37;;;;;;;53.83;29.08;;;;;;;;;;5032410;28;20022;-68
2021/01/12 06:50:10;;;;;;;50.17;27.42;;;;;;;;;;5033525;28;20018;-67
2021/01/12 06:52:38;;;;;;;46.15;25.75;;;;;;;;;;5032359;28;20036;-67
2021/01/12 06:55:05;;;;;;;53.30;28.10;;;;;;;;;;5032642;28;20373;-67
2021/01/12 06:57:32;;;;;;;53.25;28.05;;;;;;;;;;5031592;28;20081;-68
2021/01/12 06:59:57;;;;;;;59.15;31.40;;;;;;;;;;5032012;28;20017;-68
2021/01/12 07:02:30;;;;;;;63.58;31.33;;;;;;;;;;5032110;28;20033;-67
2021/01/12 07:04:56;;;;;;;62.78;33.58;;;;;;;;;;5030943;28;20721;-68
2021/01/12 07:07:22;;;;;;;59.65;30.52;;;;;;;;;;5028378;28;20024;-68
2021/01/12 07:09:48;;;;;;;55.13;29.42;;;;;;;;;;5030995;28;20087;-68
2021/01/12 07:12:18;;;;;;;55.58;30.73;;;;;;;;;;5032042;28;20029;-67
2021/01/12 07:14:44;;;;;;;;;;;;;;;;;;5026840;28;20057;-68
2021/01/12 07:17:09;;;;;;;75.35;40.67;;;;;;;;;;5033232;28;20390;-67
2021/01/12 07:19:35;;;;;;;84.85;46.83;;;;;;;;;;5032896;28;20071;-68
2021/01/12 07:22:11;;;;;;;87.25;50.05;;;;;;;;;;5032848;28;20037;-67
2021/01/12 07:24:39;;;;;;;92.32;49.95;;;;;;;;;;5033429;28;20037;-68
2021/01/12 07:27:07;;;;;;;91.38;49.50;;;;;;;;;;5032941;28;20116;-68
2021/01/12 07:29:32;;;;;;;81.53;47.22;;;;;;;;;;5033367;28;20036;-68
2021/01/12 07:32:02;;;;;;;88.20;50.15;;;;;;;;;;5033378;28;20100;-68
2021/01/12 07:34:32;;;;;;;86.53;52.45;;;;;;;;;;5033431;28;20464;-68
2021/01/12 07:36:58;;;;;;;82.10;49.33;;;;;;;;;;5033397;28;20026;-68
2021/01/12 07:39:23;;;;;;;78.65;48.58;;;;;;;;;;5029557;28;20427;-68
2021/01/12 07:41:49;;;;;;;73.65;44.40;;;;;;;;;;5033279;28;20021;-68
2021/01/12 07:44:17;;;;;;;66.57;39.03;;;;;;;;;;5031790;28;20017;-67
2021/01/12 07:46:44;;;;;;;66.20;35.95;;;;;;;;;;5032919;28;20034;-67
2021/01/12 07:49:09;;;;;;;69.30;35.03;;;;;;;;;;5028845;28;20100;-62
2021/01/12 07:51:35;;;;;;;71.60;37.63;;;;;;;;;;5031771;28;20108;-67
2021/01/12 07:54:00;;;;;;;68.10;37.70;;;;;;;;;;5032705;28;20033;-67
2021/01/12 07:56:28;;;;;;;73.95;40.72;;;;;;;;;;5032741;28;20480;-68
2021/01/12 07:58:53;;;;;;;69.07;37.75;;;;;;;;;;5030636;28;20081;-67
2021/01/12 08:01:25;;;;;;;67.70;36.72;;;;;;;;;;5032129;28;20034;-67
2021/01/12 08:03:53;;;;;;;81.30;42.33;;;;;;;;;;5029719;28;20021;-67
2021/01/12 08:06:19;;;;;;;85.93;43.85;;;;;;;;;;5030088;28;20030;-67
2021/01/12 08:08:54;;;;;;;78.22;40.65;;;;;;;;;;5031177;28;20040;-68
2021/01/12 08:11:23;;;;;;;72.57;38.42;;;;;;;;;;5031604;28;20057;-67
2021/01/12 08:13:48;;;;;;;54.88;30.83;;;;;;;;;;5029815;28;20051;-68
2021/01/12 08:16:14;;;;;;;42.72;23.98;;;;;;;;;;5031126;28;20167;-67
2021/01/12 08:18:39;;;;;;;43.50;25.42;;;;;;;;;;5032634;28;20029;-67
2021/01/12 08:21:04;;;;;;;37.17;22.50;;;;;;;;;;5031464;28;20029;-68
2021/01/12 08:23:30;;;;;;;34.45;19.88;;;;;;;;;;5028482;28;20028;-68
2021/01/12 08:25:55;;;;;;;38.55;21.80;;;;;;;;;;5033628;28;20030;-67
2021/01/12 08:28:21;;;;;;;40.90;22.60;;;;;;;;;;5034796;28;20515;-68
2021/01/12 08:30:46;;;;;;;36.17;20.55;;;;;;;;;;5035584;28;20037;-68
2021/01/12 08:33:21;;;;;;;32.28;17.73;;;;;;;;;;5035156;28;20367;-67
2021/01/12 08:35:53;;;;;;;46.72;25.55;;;;;;;;;;5036173;28;20026;-67
2021/01/12 08:38:21;;;;;;;47.38;25.75;;;;;;;;;;5035607;28;20039;-67
2021/01/12 08:40:48;;;;;;;37.55;20.98;;;;;;;;;;5036080;28;20018;-67
2021/01/12 08:43:14;;;;;;;47.90;24.25;;;;;;;;;;5036255;28;20053;-67
2021/01/12 08:45:41;;;;;;;35.88;18.15;;;;;;;;;;5035127;28;20055;-68
2021/01/12 08:48:11;;;;;;;36.80;18.60;;;;;;;;;;5034901;28;20036;-67
2021/01/12 08:50:37;;;;;;;31.95;15.80;;;;;;;;;;5036110;28;20442;-67
2021/01/12 08:53:02;;;;;;;43.13;23.40;;;;;;;;;;5035760;28;20018;-67
2021/01/12 08:55:32;;;;;;;35.83;18.20;;;;;;;;;;5033347;28;20542;-67
2021/01/12 08:57:58;;;;;;;19.63;10.65;;;;;;;;;;5031612;28;20021;-68
2021/01/12 09:00:28;;;;;;;18.42;10.25;;;;;;;;;;5034165;28;20400;-67
2021/01/12 09:02:54;;;;;;;31.85;16.80;;;;;;;;;;5034921;28;20452;-66
2021/01/12 09:05:20;;;;;;;22.17;12.32;;;;;;;;;;5035995;28;20036;-66
2021/01/12 09:07:45;;;;;;;19.95;10.73;;;;;;;;;;5034583;28;20017;-66
2021/01/12 09:10:11;;;;;;;24.63;13.88;;;;;;;;;;5035465;28;20048;-66
2021/01/12 09:12:38;;;;;;;22.52;12.95;;;;;;;;;;5035767;28;20353;-66
2021/01/12 09:15:04;;;;;;;24.52;13.88;;;;;;;;;;5035362;28;20041;-66
2021/01/12 09:17:29;;;;;;;23.05;12.73;;;;;;;;;;5035446;28;20025;-66
2021/01/12 09:19:55;;;;;;;22.48;13.00;;;;;;;;;;5035363;28;20387;-66
2021/01/12 09:22:20;;;;;;;23.83;12.85;;;;;;;;;;5035378;28;20361;-66
2021/01/12 09:24:49;;;;;;;22.23;13.73;;;;;;;;;;5035327;28;20037;-66
2021/01/12 09:27:27;;;;;;;22.58;12.63;;;;;;;;;;5035291;28;20026;-66
2021/01/12 09:29:54;;;;;;;24.40;13.10;;;;;;;;;;5034500;28;20029;-67
2021/01/12 09:32:25;;;;;;;24.88;13.20;;;;;;;;;;5034101;28;20068;-66
2021/01/12 09:34:51;;;;;;;24.15;13.00;;;;;;;;;;5035217;28;20025;-66
2021/01/12 09:37:17;;;;;;;21.23;11.88;;;;;;;;;;5034334;28;20448;-66
2021/01/12 09:39:44;;;;;;;22.38;12.00;;;;;;;;;;5034982;28;20034;-66
2021/01/12 09:42:10;;;;;;;25.63;14.07;;;;;;;;;;5035268;28;20104;-66
2021/01/12 09:44:35;;;;;;;23.77;13.05;;;;;;;;;;5034971;28;20076;-66
2021/01/12 09:47:01;;;;;;;23.15;12.75;;;;;;;;;;5034219;28;20021;-66
2021/01/12 09:49:27;;;;;;;22.45;12.18;;;;;;;;;;5034767;28;20064;-66
2021/01/12 09:51:52;;;;;;;24.85;12.82;;;;;;;;;;5035014;28;20025;-66
2021/01/12 09:54:18;;;;;;;39.90;19.50;;;;;;;;;;5034074;28;20029;-66
2021/01/12 09:56:43;;;;;;;21.40;11.45;;;;;;;;;;5034634;28;20029;-66
2021/01/12 09:59:09;;;;;;;21.75;12.82;;;;;;;;;;5034823;28;20468;-66
2021/01/12 10:01:34;;;;;;;22.80;11.88;;;;;;;;;;5034267;28;20112;-66
2021/01/12 10:04:00;;;;;;;25.70;14.10;;;;;;;;;;5034786;28;20034;-66
2021/01/12 10:06:29;;;;;;;20.65;11.40;;;;;;;;;;5034223;28;20037;-66
2021/01/12 10:08:55;;;;;;;22.00;12.20;;;;;;;;;;5034677;28;20548;-66
2021/01/12 10:11:23;;;;;;;24.00;13.45;;;;;;;;;;5034068;28;20128;-66
2021/01/12 10:13:48;;;;;;;19.83;11.25;;;;;;;;;;5033284;28;20475;-66
2021/01/12 10:16:20;;;;;;;24.35;14.50;;;;;;;;;;5034479;28;20034;-66
2021/01/12 10:18:46;;;;;;;27.13;14.68;;;;;;;;;;5034032;28;20025;-67
2021/01/12 10:21:12;;;;;;;36.47;17.75;;;;;;;;;;5034088;28;20025;-67
2021/01/12 10:23:38;;;;;;;24.80;12.57;;;;;;;;;;5030554;28;20127;-68
2021/01/12 10:26:03;;;;;;;27.08;14.15;;;;;;;;;;5029953;28;20025;-61
2021/01/12 10:28:29;;;;;;;34.38;18.25;;;;;;;;;;5031183;28;20479;-61
2021/01/12 10:30:54;;;;;;;27.45;13.38;;;;;;;;;;5031930;28;20108;-61
2021/01/12 10:33:20;;;;;;;25.15;13.20;;;;;;;;;;5033945;28;20038;-61
2021/01/12 10:35:45;;;;;;;30.45;14.95;;;;;;;;;;5032625;28;20017;-61
2021/01/12 10:38:11;;;;;;;32.42;16.70;;;;;;;;;;5033975;28;20045;-61
2021/01/12 10:40:36;;;;;;;33.90;18.25;;;;;;;;;;5032052;28;20055;-60
2021/01/12 10:43:02;;;;;;;20.65;12.77;;;;;;;;;;5030986;28;20028;-61
2021/01/12 10:45:27;;;;;;;31.45;16.23;;;;;;;;;;5033046;28;20390;-60
2021/01/12 10:47:53;;;;;;;20.55;11.07;;;;;;;;;;5032652;28;20041;-61
2021/01/12 10:50:19;;;;;;;19.02;10.85;;;;;;;;;;5029965;28;20029;-61
2021/01/12 10:52:45;;;;;;;19.45;12.07;;;;;;;;;;5031930;28;20384;-61
2021/01/12 10:55:11;;;;;;;21.50;12.15;;;;;;;;;;5033045;28;20041;-61
2021/01/12 10:57:36;;;;;;;15.73;9.88;;;;;;;;;;5033979;28;20033;-63
2021/01/12 11:00:05;;;;;;;16.67;9.98;;;;;;;;;;5033831;28;20021;-62
2021/01/12 11:02:34;;;;;;;13.30;8.52;;;;;;;;;;5030934;28;20030;-63
2021/01/12 11:05:00;;;;;;;15.93;9.40;;;;;;;;;;5033509;28;20043;-63
2021/01/12 11:07:26;;;;;;;7.22;4.15;;;;;;;;;;5033359;28;20472;-62
2021/01/12 11:09:53;;;;;;;16.02;9.75;;;;;;;;;;5030739;28;20403;-62
2021/01/12 11:12:18;;;;;;;13.40;9.13;;;;;;;;;;5033836;28;20029;-62
2021/01/12 11:14:44;;;;;;;13.05;8.13;;;;;;;;;;5028452;28;20057;-69
2021/01/12 11:17:13;;;;;;;12.05;7.70;;;;;;;;;;5032573;28;20025;-69
2021/01/12 11:19:39;;;;;;;15.32;9.63;;;;;;;;;;5032166;28;20097;-69
2021/01/12 11:22:05;;;;;;;12.27;7.85;;;;;;;;;;5032059;28;20109;-68
2021/01/12 11:24:30;;;;;;;12.80;7.43;;;;;;;;;;5030174;28;20109;-69
2021/01/12 11:26:56;;;;;;;15.23;8.13;;;;;;;;;;5032079;28;20026;-69
2021/01/12 11:29:23;;;;;;;15.02;8.30;;;;;;;;;;5033132;28;20382;-68
2021/01/12 11:31:49;;;;;;;12.27;8.00;;;;;;;;;;5033168;28;20699;-68
2021/01/12 11:34:16;;;;;;;14.10;8.65;;;;;;;;;;5031030;28;20025;-69
2021/01/12 11:36:43;;;;;;;14.80;8.63;;;;;;;;;;5032817;28;20082;-68
2021/01/12 11:39:09;;;;;;;12.43;8.40;;;;;;;;;;5033197;28;20066;-68
2021/01/12 11:41:36;;;;;;;12.80;6.85;;;;;;;;;;5032751;28;20464;-68
2021/01/12 11:44:01;;;;;;;12.38;7.82;;;;;;;;;;5033372;28;20025;-68
2021/01/12 11:46:27;;;;;;;14.68;7.50;;;;;;;;;;5033038;28;20388;-68
2021/01/12 11:48:53;;;;;;;12.90;7.25;;;;;;;;;;5033147;28;20033;-67
2021/01/12 11:51:19;;;;;;;13.80;7.85;;;;;;;;;;5033225;28;20036;-67
2021/01/12 11:53:45;;;;;;;10.13;6.63;;;;;;;;;;5031808;28;20017;-67
2021/01/12 11:56:11;;;;;;;10.18;6.78;;;;;;;;;;5032974;28;20088;-67
2021/01/12 11:58:37;;;;;;;11.52;6.65;;;;;;;;;;5033327;28;20106;-67
2021/01/12 12:01:02;;;;;;;14.70;8.07;;;;;;;;;;5035060;28;20023;-67
2021/01/12 12:03:27;;;;;;;12.60;6.88;;;;;;;;;;5036977;28;20420;-68
2021/01/12 12:05:53;;;;;;;11.55;6.32;;;;;;;;;;5036922;28;20024;-67
2021/01/12 12:08:19;;;;;;;12.48;7.65;;;;;;;;;;5036839;28;20029;-67
2021/01/12 12:10:45;;;;;;;11.90;6.80;;;;;;;;;;5037016;28;20100;-67
2021/01/12 12:13:10;;;;;;;12.48;7.05;;;;;;;;;;5036873;28;20128;-67
2021/01/12 12:15:36;;;;;;;8.25;5.85;;;;;;;;;;5036546;28;20021;-67
2021/01/12 12:18:01;;;;;;;10.15;5.72;;;;;;;;;;5036758;28;20416;-67
2021/01/12 12:20:27;;;;;;;13.02;7.35;;;;;;;;;;5036536;28;20483;-67
2021/01/12 12:22:53;;;;;;;12.80;7.63;;;;;;;;;;5035817;28;20064;-68
2021/01/12 12:25:19;;;;;;;11.43;6.68;;;;;;;;;;5028493;28;20045;-67
2021/01/12 12:27:44;;;;;;;11.50;6.95;;;;;;;;;;5035537;28;20060;-67
2021/01/12 12:30:10;;;;;;;12.82;6.68;;;;;;;;;;5035121;28;20025;-67
2021/01/12 12:32:36;;;;;;;15.48;7.68;;;;;;;;;;5035647;28;20059;-62
2021/01/12 12:35:02;;;;;;;11.85;5.95;;;;;;;;;;5036443;28;20041;-61
2021/01/12 12:37:27;;;;;;;10.77;7.30;;;;;;;;;;5035889;28;20025;-61
2021/01/12 12:39:52;;;;;;;14.73;8.77;;;;;;;;;;5034923;28;20037;-62
2021/01/12 12:42:18;;;;;;;14.80;7.80;;;;;;;;;;5034629;28;20083;-61
2021/01/12 12:44:44;;;;;;;22.67;11.18;;;;;;;;;;5031375;28;20018;-61
2021/01/12 12:47:11;;;;;;;15.18;7.93;;;;;;;;;;5034665;28;20033;-61
2021/01/12 12:49:37;;;;;;;14.05;8.00;;;;;;;;;;5036331;28;20030;-61
2021/01/12 12:52:02;;;;;;;10.32;6.03;;;;;;;;;;5035808;28;20028;-61
2021/01/12 12:54:28;;;;;;;8.77;5.32;;;;;;;;;;5035685;28;20026;-67
2021/01/12 12:56:56;;;;;;;14.25;8.02;;;;;;;;;;5036005;28;20036;-67
2021/01/12 12:59:22;;;;;;;15.27;9.23;;;;;;;;;;5035860;28;20119;-67
2021/01/12 13:01:48;;;;;;;16.67;9.35;;;;;;;;;;5035792;28;20095;-68
2021/01/12 13:04:14;;;;;;;15.13;8.35;;;;;;;;;;5035886;28;20072;-68
2021/01/12 13:06:40;;;;;;;13.15;6.85;;;;;;;;;;5035920;28;20025;-68
2021/01/12 13:09:08;;;;;;;12.15;7.70;;;;;;;;;;5035835;28;20087;-67
2021/01/12 13:11:35;;;;;;;13.45;8.07;;;;;;;;;;5035043;28;20021;-68
2021/01/12 13:14:01;;;;;;;11.40;7.85;;;;;;;;;;5035204;28;20022;-68
2021/01/12 13:16:30;;;;;;;9.85;5.50;;;;;;;;;;5035620;28;20044;-68
2021/01/12 13:18:57;;;;;;;10.15;7.22;;;;;;;;;;5035788;28;20021;-67
2021/01/12 13:21:23;;;;;;;12.32;8.55;;;;;;;;;;5035605;28;20041;-68
2021/01/12 13:23:48;;;;;;;13.65;6.60;;;;;;;;;;5035467;28;20022;-68
2021/01/12 13:26:14;;;;;;;14.82;9.02;;;;;;;;;;5035529;28;20033;-68
2021/01/12 13:28:39;;;;;;;9.95;5.78;;;;;;;;;;5035396;28;20017;-67
2021/01/12 13:31:05;;;;;;;11.23;7.50;;;;;;;;;;5035536;28;20026;-68
2021/01/12 13:33:30;;;;;;;11.10;6.88;;;;;;;;;;5034644;28;20053;-67
2021/01/12 13:35:56;;;;;;;10.50;6.40;;;;;;;;;;5032727;28;20502;-68
2021/01/12 13:38:21;;;;;;;10.20;6.88;;;;;;;;;;5030297;28;20498;-68
2021/01/12 13:40:47;;;;;;;10.68;6.60;;;;;;;;;;5031837;28;20049;-68
2021/01/12 13:43:12;;;;;;;15.07;7.93;;;;;;;;;;5032593;28;20021;-67
2021/01/12 13:45:38;;;;;;;13.82;7.15;;;;;;;;;;5033156;28;20461;-67
2021/01/12 13:48:04;;;;;;;11.38;7.38;;;;;;;;;;5031971;28;20075;-67
2021/01/12 13:50:29;;;;;;;16.23;8.57;;;;;;;;;;5034548;28;20037;-67
2021/01/12 13:52:55;;;;;;;20.02;9.93;;;;;;;;;;5033323;28;20079;-67
2021/01/12 13:55:21;;;;;;;17.20;9.48;;;;;;;;;;5032825;28;20095;-68
2021/01/12 13:58:03;;;;;;;21.17;10.02;;;;;;;;;;5029083;28;20084;-68
2021/01/12 14:00:29;;;;;;;25.45;13.02;;;;;;;;;;5033488;28;20033;-68
2021/01/12 14:02:56;;;;;;;21.02;10.70;;;;;;;;;;5030572;28;20029;-68
2021/01/12 14:05:22;;;;;;;17.42;10.40;;;;;;;;;;5034639;28;20053;-67
2021/01/12 14:07:48;;;;;;;13.90;8.68;;;;;;;;;;5034473;28;20468;-67
2021/01/12 14:10:15;;;;;;;15.05;8.52;;;;;;;;;;5034598;28;20029;-67
2021/01/12 14:12:40;;;;;;;12.50;8.52;;;;;;;;;;5034664;28;20022;-68
2021/01/12 14:15:09;;;;;;;13.77;9.30;;;;;;;;;;5033237;28;20040;-67